Time;durP1;ratioP1;P1;durP2;ratioP2;P2;SDS_P1;SDS_P2;PMS_P1;PMS_P2;Temp;Humidity;BMP_temperature;BMP_pressure;BME280_temperature;BME280_humidity;BME280_pressure;Samples;Min_cycle;Max_cycle;Signal;HPM_P1;HPM_P2
2022/03/03 00:00:01;;;;;;;20.05;12.63;;;0.00;99.90;;;;;;1813938;78;21577;-75
2022/03/03 00:02:28;;;;;;;21.93;12.53;;;0.00;99.90;;;;;;1813298;79;21047;-73
2022/03/03 00:04:57;;;;;;;18.37;11.60;;;0.00;99.90;;;;;;1821617;78;21463;-74
2022/03/03 00:07:25;;;;;;;14.83;11.05;;;0.00;99.90;;;;;;1825802;78;21098;-75
2022/03/03 00:09:53;;;;;;;17.90;11.10;;;0.00;99.90;;;;;;1824398;79;21140;-75
2022/03/03 00:12:20;;;;;;;18.87;11.78;;;0.00;99.90;;;;;;1812868;79;21124;-74
2022/03/03 00:14:47;;;;;;;19.57;12.50;;;0.00;99.90;;;;;;1813457;79;21066;-75
2022/03/03 00:17:14;;;;;;;19.05;12.13;;;-0.10;99.90;;;;;;1820883;77;21075;-75
2022/03/03 00:19:42;;;;;;;16.73;12.03;;;-0.10;99.90;;;;;;1817673;78;21443;-75
2022/03/03 00:22:10;;;;;;;22.62;12.15;;;-0.20;99.90;;;;;;1814711;78;21089;-74
2022/03/03 00:24:37;;;;;;;31.65;12.80;;;-0.20;99.90;;;;;;1812927;78;21122;-75
2022/03/03 00:27:24;;;;;;;17.95;11.85;;;-0.20;99.90;;;;;;1811953;79;21141;-74
2022/03/03 00:29:52;;;;;;;22.42;12.03;;;-0.20;99.90;;;;;;1850901;77;21501;-75
2022/03/03 00:32:20;;;;;;;24.10;11.78;;;-0.20;99.90;;;;;;1872702;74;21195;-75
2022/03/03 00:34:47;;;;;;;14.87;11.57;;;-0.30;99.90;;;;;;1854963;74;21113;-75
2022/03/03 00:37:17;;;;;;;18.80;12.78;;;-0.30;99.90;;;;;;1853222;76;21082;-75
2022/03/03 00:39:44;;;;;;;19.05;11.97;;;-0.40;99.90;;;;;;1868602;74;21192;-74
2022/03/03 00:42:12;;;;;;;17.85;12.05;;;-0.30;99.90;;;;;;1858294;75;21077;-75
2022/03/03 00:44:41;;;;;;;20.10;11.85;;;-0.30;99.90;;;;;;1811801;77;21129;-74
2022/03/03 00:47:08;;;;;;;22.50;12.18;;;-0.30;99.90;;;;;;1818619;77;21160;-75
2022/03/03 00:49:35;;;;;;;19.40;11.53;;;-0.30;99.90;;;;;;1809955;77;21491;-74
2022/03/03 00:52:03;;;;;;;16.90;11.80;;;-0.40;99.90;;;;;;1831252;78;21120;-73
2022/03/03 00:54:30;;;;;;;20.37;12.60;;;-0.40;99.90;;;;;;1832386;77;21093;-74
2022/03/03 00:56:57;;;;;;;20.65;12.13;;;-0.40;99.90;;;;;;1826746;76;21576;-74
2022/03/03 00:59:25;;;;;;;17.85;11.73;;;-0.40;99.90;;;;;;1805020;78;21087;-74
2022/03/03 01:01:52;;;;;;;17.35;11.65;;;-0.40;99.90;;;;;;1820864;76;21469;-74
2022/03/03 01:04:20;;;;;;;23.45;12.53;;;-0.50;99.90;;;;;;1817577;76;21219;-74
2022/03/03 01:06:47;;;;;;;18.60;12.37;;;-0.40;99.90;;;;;;1825878;77;21109;-74
2022/03/03 01:09:15;;;;;;;17.85;12.40;;;-0.40;99.90;;;;;;1826475;78;21485;-74
2022/03/03 01:11:42;;;;;;;18.05;12.88;;;-0.50;99.90;;;;;;1820961;78;21089;-74
2022/03/03 01:14:09;;;;;;;21.57;13.62;;;-0.50;99.90;;;;;;1834071;78;21602;-74
2022/03/03 01:16:36;;;;;;;17.52;12.53;;;-0.50;99.90;;;;;;1827048;77;21085;-74
2022/03/03 01:19:04;;;;;;;17.80;12.68;;;-0.50;99.90;;;;;;1831766;77;21489;-74
2022/03/03 01:21:32;;;;;;;18.67;12.65;;;-0.50;99.90;;;;;;1807324;78;21578;-74
2022/03/03 01:23:59;;;;;;;22.27;12.80;;;-0.50;99.90;;;;;;1813369;77;21529;-74
2022/03/03 01:26:26;;;;;;;21.97;12.05;;;-0.50;99.90;;;;;;1808588;77;21096;-73
2022/03/03 01:28:54;;;;;;;25.20;13.45;;;-0.50;99.90;;;;;;1817625;77;21478;-75
2022/03/03 01:31:22;;;;;;;21.90;13.22;;;-0.60;99.90;;;;;;1813740;77;21129;-72
2022/03/03 01:33:50;;;;;;;21.97;13.40;;;-0.60;99.90;;;;;;1871800;76;21081;-73
2022/03/03 01:36:18;;;;;;;27.67;14.53;;;-0.50;99.90;;;;;;1881919;76;21050;-73
2022/03/03 01:38:45;;;;;;;23.38;13.68;;;-0.50;99.90;;;;;;1881957;76;21155;-74
2022/03/03 01:41:13;;;;;;;40.00;13.43;;;-0.50;99.90;;;;;;1882008;76;21046;-73
2022/03/03 01:43:40;;;;;;;22.60;13.62;;;-0.50;99.90;;;;;;1882670;76;21022;-74
2022/03/03 01:46:08;;;;;;;20.82;13.88;;;-0.60;99.90;;;;;;1887749;76;21061;-73
2022/03/03 01:48:35;;;;;;;25.08;13.62;;;-0.80;99.90;;;;;;1887768;76;21022;-74
2022/03/03 01:51:02;;;;;;;22.85;13.80;;;-0.80;99.90;;;;;;1887796;76;21058;-75
2022/03/03 01:53:30;;;;;;;20.57;13.45;;;-0.90;99.90;;;;;;1887800;75;21148;-73
2022/03/03 01:55:57;;;;;;;19.42;13.32;;;-0.90;99.90;;;;;;1887673;76;21155;-74
2022/03/03 01:58:24;;;;;;;18.98;13.48;;;-0.90;99.90;;;;;;1856364;76;21115;-73
2022/03/03 02:00:52;;;;;;;19.40;12.93;;;-0.90;99.90;;;;;;1887721;75;21002;-73
2022/03/03 02:03:19;;;;;;;23.25;12.05;;;-0.90;99.90;;;;;;1887763;75;21135;-74
2022/03/03 02:05:46;;;;;;;19.87;12.82;;;-0.90;99.90;;;;;;1887930;76;21101;-73
2022/03/03 02:08:14;;;;;;;21.95;13.90;;;-1.00;99.90;;;;;;1887931;76;21147;-73
2022/03/03 02:10:41;;;;;;;19.00;13.20;;;-1.00;99.90;;;;;;1887736;76;21453;-73
2022/03/03 02:13:08;;;;;;;29.40;14.05;;;-0.90;99.90;;;;;;1887854;76;21023;-74
2022/03/03 02:15:36;;;;;;;18.67;12.63;;;-0.90;99.90;;;;;;1887832;76;21422;-74
2022/03/03 02:18:03;;;;;;;21.17;13.22;;;-1.00;99.90;;;;;;1887771;76;21047;-73
2022/03/03 02:20:31;;;;;;;19.45;12.60;;;-0.90;99.90;;;;;;1887661;76;21497;-73
2022/03/03 02:22:59;;;;;;;22.62;12.88;;;-0.80;99.90;;;;;;1888017;76;21119;-73
2022/03/03 02:25:26;;;;;;;21.60;12.80;;;-0.90;99.90;;;;;;1887763;76;21050;-72
2022/03/03 02:27:53;;;;;;;19.30;14.28;;;-0.90;99.90;;;;;;1887692;76;21120;-73
2022/03/03 02:30:21;;;;;;;21.57;13.60;;;-1.10;99.90;;;;;;1887821;76;21171;-73
2022/03/03 02:32:48;;;;;;;27.10;13.62;;;-0.90;99.90;;;;;;1887699;76;21116;-73
2022/03/03 02:35:15;;;;;;;19.02;12.25;;;-1.00;99.90;;;;;;1887838;76;21417;-73
2022/03/03 02:37:44;;;;;;;21.05;13.65;;;-1.20;99.90;;;;;;1887738;76;21033;-74
2022/03/03 02:40:20;;;;;;;19.52;13.58;;;-1.10;99.90;;;;;;1887741;75;21101;-72
2022/03/03 02:42:44;;;;;;;24.12;13.32;;;-1.00;99.90;;;;;;1887198;76;21054;-73
2022/03/03 02:45:12;;;;;;;18.32;13.50;;;-1.10;99.90;;;;;;1887664;76;21050;-74
2022/03/03 02:47:43;;;;;;;24.35;13.32;;;-1.20;99.90;;;;;;1887738;76;21019;-73
2022/03/03 02:50:10;;;;;;;20.37;14.28;;;-1.10;99.90;;;;;;1887677;76;21162;-73
2022/03/03 02:52:38;;;;;;;28.17;14.00;;;-1.20;99.90;;;;;;1887832;76;21050;-73
2022/03/03 02:55:06;;;;;;;22.62;13.32;;;-1.20;99.90;;;;;;1887605;75;21073;-72
2022/03/03 03:00:19;;;;;;;22.35;13.40;;;-1.30;99.90;;;;;;1887540;76;21506;-72
2022/03/03 03:02:46;;;;;;;24.60;14.50;;;-1.30;99.90;;;;;;1887794;76;21113;-73
2022/03/03 03:05:13;;;;;;;22.73;14.63;;;-1.30;99.90;;;;;;1887707;76;21422;-73
2022/03/03 03:07:41;;;;;;;23.18;14.05;;;-1.30;99.90;;;;;;1887670;76;21155;-73
2022/03/03 03:10:08;;;;;;;25.45;14.45;;;-1.30;99.90;;;;;;1887720;76;21522;-73
2022/03/03 03:12:35;;;;;;;22.20;13.95;;;-1.20;99.90;;;;;;1887885;76;21022;-73
2022/03/03 03:15:03;;;;;;;22.05;13.72;;;-1.30;99.90;;;;;;1887788;76;21046;-72
2022/03/03 03:17:30;;;;;;;27.75;14.53;;;-1.30;99.90;;;;;;1888053;76;21081;-72
2022/03/03 03:19:58;;;;;;;21.62;13.18;;;-1.20;99.90;;;;;;1887756;76;21115;-73
2022/03/03 03:22:25;;;;;;;25.15;14.23;;;-1.20;99.90;;;;;;1887853;76;21115;-72
2022/03/03 03:24:53;;;;;;;25.17;13.78;;;-1.20;99.90;;;;;;1887784;76;21034;-72
2022/03/03 03:27:20;;;;;;;30.12;15.35;;;-1.20;99.90;;;;;;1887796;76;21442;-73
2022/03/03 03:29:47;;;;;;;21.60;13.65;;;-1.20;99.90;;;;;;1887846;76;21101;-74
2022/03/03 03:32:14;;;;;;;26.65;13.70;;;-1.30;99.90;;;;;;1867198;76;21476;-73
2022/03/03 03:34:42;;;;;;;26.65;13.20;;;-1.30;99.90;;;;;;1887782;76;21042;-74
2022/03/03 03:37:10;;;;;;;19.90;13.50;;;-1.50;99.90;;;;;;1887837;76;21026;-73
2022/03/03 03:39:37;;;;;;;23.05;14.75;;;-1.60;99.90;;;;;;1887856;76;21544;-73
2022/03/03 03:42:05;;;;;;;20.32;14.28;;;-1.60;99.90;;;;;;1887798;76;21080;-73
2022/03/03 03:44:32;;;;;;;30.43;14.03;;;-1.60;99.90;;;;;;1887893;76;21023;-74
2022/03/03 03:46:59;;;;;;;25.90;14.95;;;-1.70;99.90;;;;;;1887808;76;21030;-74
2022/03/03 03:49:27;;;;;;;19.67;13.80;;;-1.70;99.90;;;;;;1887864;75;21140;-73
2022/03/03 03:51:54;;;;;;;19.20;13.10;;;-1.70;99.90;;;;;;1887790;76;21070;-73
2022/03/03 03:54:22;;;;;;;19.67;14.50;;;-1.70;99.90;;;;;;1887869;76;21099;-71
2022/03/03 03:56:49;;;;;;;22.25;14.05;;;-1.70;99.90;;;;;;1887751;75;21112;-72
2022/03/03 03:59:16;;;;;;;24.92;15.18;;;-1.80;99.90;;;;;;1873265;76;21169;-73
2022/03/03 04:01:43;;;;;;;26.00;15.20;;;-1.70;99.90;;;;;;1887844;75;21059;-71
2022/03/03 04:04:11;;;;;;;21.35;14.07;;;-1.80;99.90;;;;;;1887795;76;21147;-73
2022/03/03 04:06:38;;;;;;;21.00;13.75;;;-1.70;99.90;;;;;;1887902;76;21041;-72
2022/03/03 04:09:05;;;;;;;22.93;13.80;;;-1.60;99.90;;;;;;1887886;76;21022;-72
2022/03/03 04:11:33;;;;;;;24.60;14.40;;;-1.60;99.90;;;;;;1887819;76;21152;-72
2022/03/03 04:14:00;;;;;;;21.62;13.43;;;-1.70;99.90;;;;;;1887915;76;21058;-73
2022/03/03 04:16:28;;;;;;;20.92;13.95;;;-1.60;99.90;;;;;;1887945;76;21011;-73
2022/03/03 04:18:55;;;;;;;19.98;13.70;;;-1.70;99.90;;;;;;1887771;76;21128;-72
2022/03/03 04:21:22;;;;;;;21.30;14.10;;;-1.70;99.90;;;;;;1887788;76;21525;-73
2022/03/03 04:23:49;;;;;;;20.85;13.80;;;-1.60;99.90;;;;;;1887816;76;21045;-72
2022/03/03 04:26:17;;;;;;;21.02;13.43;;;-1.60;99.90;;;;;;1887844;76;21422;-73
2022/03/03 04:28:44;;;;;;;25.70;14.00;;;-1.70;99.90;;;;;;1887830;76;21074;-71
2022/03/03 04:31:11;;;;;;;29.27;14.65;;;-1.70;99.90;;;;;;1887853;76;21123;-72
2022/03/03 04:33:39;;;;;;;22.10;13.93;;;-1.70;99.90;;;;;;1887853;76;21578;-72
2022/03/03 04:36:06;;;;;;;24.98;14.73;;;-1.70;99.90;;;;;;1887777;76;21099;-72
2022/03/03 04:38:33;;;;;;;26.30;15.23;;;-1.80;99.90;;;;;;1887804;76;21038;-72
2022/03/03 04:41:01;;;;;;;31.17;15.03;;;-1.80;99.90;;;;;;1887757;75;21151;-71
2022/03/03 04:43:28;;;;;;;21.17;13.80;;;-1.90;99.90;;;;;;1887827;75;21078;-71
2022/03/03 04:45:55;;;;;;;20.25;14.13;;;-1.90;99.90;;;;;;1887790;76;21031;-73
2022/03/03 04:48:29;;;;;;;25.80;14.55;;;-1.90;99.90;;;;;;1887823;75;21182;-72
2022/03/03 04:50:52;;;;;;;19.67;13.68;;;-2.00;99.90;;;;;;1886765;76;21125;-72
2022/03/03 04:53:19;;;;;;;34.53;14.93;;;-1.90;99.90;;;;;;1887911;76;21034;-71
2022/03/03 04:55:46;;;;;;;23.02;14.63;;;-1.90;99.90;;;;;;1887878;76;21058;-72
2022/03/03 04:58:14;;;;;;;28.38;14.38;;;-1.90;99.90;;;;;;1887757;76;21026;-71
2022/03/03 05:00:41;;;;;;;21.12;14.23;;;-1.90;99.90;;;;;;1887606;76;21105;-72
2022/03/03 05:03:08;;;;;;;27.02;15.40;;;-1.90;99.90;;;;;;1887988;76;21038;-72
2022/03/03 05:05:36;;;;;;;30.40;15.13;;;-1.90;99.90;;;;;;1887862;76;21041;-73
2022/03/03 05:08:03;;;;;;;22.98;14.87;;;-1.90;99.90;;;;;;1887855;76;21111;-71
2022/03/03 05:10:30;;;;;;;27.65;14.45;;;-1.90;99.90;;;;;;1887774;76;21062;-73
2022/03/03 05:12:58;;;;;;;27.67;16.82;;;-1.90;99.90;;;;;;1887782;76;21462;-71
2022/03/03 05:15:25;;;;;;;35.03;16.55;;;-1.90;99.90;;;;;;1887745;76;21117;-72
2022/03/03 05:17:53;;;;;;;24.35;15.18;;;-1.90;99.90;;;;;;1887875;76;21096;-72
2022/03/03 05:20:20;;;;;;;26.37;16.48;;;-2.00;99.90;;;;;;1887779;76;21458;-72
2022/03/03 05:22:47;;;;;;;25.77;15.08;;;-2.10;99.90;;;;;;1887910;76;21039;-72
2022/03/03 05:25:15;;;;;;;21.15;14.78;;;-2.20;99.90;;;;;;1887877;76;21430;-72
2022/03/03 05:27:42;;;;;;;23.15;15.68;;;-2.20;99.90;;;;;;1887902;76;21097;-71
2022/03/03 05:30:09;;;;;;;25.27;14.95;;;-2.20;99.90;;;;;;1887980;76;21379;-71
2022/03/03 05:32:37;;;;;;;21.97;14.83;;;-2.20;99.90;;;;;;1887776;76;21051;-71
2022/03/03 05:35:05;;;;;;;22.32;14.70;;;-2.20;99.90;;;;;;1887856;76;21041;-75
2022/03/03 05:37:33;;;;;;;23.70;14.95;;;-2.30;99.90;;;;;;1887801;76;21081;-74
2022/03/03 05:40:00;;;;;;;23.57;15.40;;;-2.20;99.90;;;;;;1887748;76;21061;-73
2022/03/03 05:42:28;;;;;;;25.02;15.38;;;-2.30;99.90;;;;;;1887833;76;21415;-74
2022/03/03 05:44:55;;;;;;;22.10;14.95;;;-2.40;99.90;;;;;;1887734;76;21042;-75
2022/03/03 05:47:22;;;;;;;23.10;14.93;;;-2.30;99.90;;;;;;1887871;76;21504;-74
2022/03/03 05:49:50;;;;;;;22.65;15.40;;;-2.20;99.90;;;;;;1887685;76;21119;-75
2022/03/03 05:52:18;;;;;;;23.87;14.47;;;-2.20;99.90;;;;;;1887762;75;21221;-74
2022/03/03 05:54:45;;;;;;;25.50;15.35;;;-2.30;99.90;;;;;;1887748;76;21049;-76
2022/03/03 05:57:21;;;;;;;22.60;15.63;;;-2.40;99.90;;;;;;1887710;75;21077;-74
2022/03/03 05:59:51;;;;;;;29.48;15.53;;;-2.30;99.90;;;;;;1886704;75;21512;-73
2022/03/03 06:02:20;;;;;;;25.35;16.25;;;-2.30;99.90;;;;;;1887902;76;21493;-76
2022/03/03 06:04:51;;;;;;;33.98;16.85;;;-2.30;99.90;;;;;;1888048;76;21054;-73
2022/03/03 06:07:25;;;;;;;25.72;16.30;;;-2.30;99.90;;;;;;1887843;76;21063;-76
2022/03/03 06:09:53;;;;;;;25.30;15.78;;;-2.30;99.90;;;;;;1887857;76;21252;-75
2022/03/03 06:12:29;;;;;;;25.23;17.15;;;-2.20;99.90;;;;;;1887873;75;21050;-75
2022/03/03 06:14:58;;;;;;;34.50;17.77;;;-2.20;99.90;;;;;;1887807;76;21123;-72
2022/03/03 06:17:26;;;;;;;32.70;18.17;;;-2.20;99.90;;;;;;1887710;76;21042;-72
2022/03/03 06:19:54;;;;;;;29.05;18.60;;;-2.20;99.90;;;;;;1888772;76;21171;-72
2022/03/03 06:22:21;;;;;;;40.50;18.32;;;-2.10;99.90;;;;;;1889652;76;21451;-71
2022/03/03 06:24:49;;;;;;;30.20;17.30;;;-2.10;99.90;;;;;;1890129;76;21176;-71
2022/03/03 06:27:16;;;;;;;29.55;17.82;;;-2.00;99.90;;;;;;1890370;76;21481;-72
2022/03/03 06:29:43;;;;;;;27.02;16.62;;;-2.00;99.90;;;;;;1890495;76;21079;-73
2022/03/03 06:32:12;;;;;;;29.63;16.87;;;-2.10;99.90;;;;;;1889800;76;21077;-69
2022/03/03 06:34:39;;;;;;;27.00;16.15;;;-2.10;99.90;;;;;;1889136;76;21066;-71
2022/03/03 06:37:07;;;;;;;30.20;15.68;;;-2.10;99.90;;;;;;1888429;76;21124;-71
2022/03/03 06:39:34;;;;;;;29.70;17.15;;;-2.20;99.90;;;;;;1888479;76;21367;-70
2022/03/03 06:42:03;;;;;;;27.35;16.37;;;-2.20;99.90;;;;;;1887996;76;21046;-72
2022/03/03 06:44:30;;;;;;;29.92;16.75;;;-2.10;99.90;;;;;;1887980;75;21042;-72
2022/03/03 06:46:57;;;;;;;24.47;15.68;;;-2.10;99.90;;;;;;1888082;76;21065;-71
2022/03/03 06:49:25;;;;;;;28.90;15.70;;;-2.10;99.90;;;;;;1888113;76;21116;-72
2022/03/03 06:51:55;;;;;;;26.30;16.82;;;-2.00;99.90;;;;;;1888107;76;21112;-72
2022/03/03 06:54:22;;;;;;;26.15;15.25;;;-2.00;99.90;;;;;;1888123;76;21244;-72
2022/03/03 06:56:54;;;;;;;28.45;16.20;;;-1.90;99.90;;;;;;1888055;76;21051;-75
2022/03/03 06:59:24;;;;;;;29.85;15.80;;;-2.00;99.90;;;;;;1888052;76;21041;-71
2022/03/03 07:01:52;;;;;;;26.17;16.42;;;-2.00;99.90;;;;;;1888192;76;21051;-72
2022/03/03 07:04:20;;;;;;;28.83;15.45;;;-2.00;99.90;;;;;;1888150;76;21043;-72
2022/03/03 07:06:47;;;;;;;29.15;16.12;;;-1.90;99.90;;;;;;1888181;76;21046;-72
2022/03/03 07:09:15;;;;;;;36.10;16.55;;;-1.80;99.90;;;;;;1888053;76;21210;-72
2022/03/03 07:11:43;;;;;;;23.22;15.53;;;-1.80;99.90;;;;;;1887991;76;21042;-72
2022/03/03 07:14:11;;;;;;;42.62;16.85;;;-1.80;99.90;;;;;;1888009;76;21528;-72
2022/03/03 07:16:41;;;;;;;25.50;14.65;;;-1.70;99.90;;;;;;1888063;76;21227;-71
2022/03/03 07:19:37;;;;;;;36.58;16.20;;;-1.70;99.90;;;;;;1888072;75;21407;-72
2022/03/03 07:22:22;;;;;;;39.90;16.40;;;-1.60;99.90;;;;;;1887895;76;21143;-72
2022/03/03 07:24:59;;;;;;;36.83;18.15;;;-1.40;99.90;;;;;;1879598;76;21035;-72
2022/03/03 07:27:26;;;;;;;25.68;16.52;;;-1.30;99.90;;;;;;1868125;76;21050;-73
2022/03/03 07:30:06;;;;;;;26.70;14.90;;;-1.10;99.90;;;;;;1888071;76;21116;-72
2022/03/03 07:32:42;;;;;;;32.75;16.05;;;-1.00;99.90;;;;;;1888366;76;21078;-73
2022/03/03 07:35:14;;;;;;;27.58;17.30;;;-0.90;99.90;;;;;;1887011;75;21484;-71
2022/03/03 07:37:48;;;;;;;36.00;17.40;;;-0.80;99.90;;;;;;1887914;76;21066;-72
2022/03/03 07:40:15;;;;;;;25.62;16.20;;;-0.50;99.90;;;;;;1887804;76;21054;-71
2022/03/03 07:42:42;;;;;;;26.48;17.85;;;-0.40;99.90;;;;;;1887985;76;21139;-71
2022/03/03 07:45:10;;;;;;;28.77;17.07;;;-0.40;99.90;;;;;;1887865;75;21039;-72
2022/03/03 07:47:57;;;;;;;30.10;16.57;;;-0.20;99.90;;;;;;1877391;76;21078;-72
2022/03/03 07:50:25;;;;;;;25.05;16.55;;;-0.10;99.90;;;;;;1833777;77;21411;-71
2022/03/03 07:52:53;;;;;;;36.15;17.23;;;-0.10;99.90;;;;;;1833005;78;21109;-73
2022/03/03 07:55:20;;;;;;;33.50;18.65;;;0.00;99.90;;;;;;1833529;77;21131;-73
2022/03/03 07:58:02;;;;;;;27.93;17.45;;;0.00;99.90;;;;;;1834705;78;21116;-72
2022/03/03 08:00:31;;;;;;;32.65;17.42;;;0.00;99.90;;;;;;1835678;78;21031;-71
2022/03/03 08:03:08;;;;;;;31.60;17.23;;;0.20;99.90;;;;;;1833477;77;21085;-73
2022/03/03 08:05:42;;;;;;;25.62;17.00;;;0.20;99.90;;;;;;1833187;77;21496;-73
2022/03/03 08:08:21;;;;;;;30.10;17.52;;;0.30;99.90;;;;;;1833516;77;21111;-71
2022/03/03 08:10:49;;;;;;;28.73;17.75;;;0.50;99.90;;;;;;1833291;78;21457;-72
2022/03/03 08:13:17;;;;;;;27.40;16.82;;;0.60;99.90;;;;;;1833042;78;21053;-73
2022/03/03 08:15:45;;;;;;;40.88;17.60;;;0.70;99.90;;;;;;1833038;78;21457;-72
2022/03/03 08:18:14;;;;;;;28.23;17.07;;;0.70;99.90;;;;;;1833129;78;21062;-73
2022/03/03 08:20:41;;;;;;;30.57;17.02;;;0.70;99.90;;;;;;1833004;78;21070;-73
2022/03/03 08:23:09;;;;;;;31.45;18.45;;;0.90;99.90;;;;;;1833222;78;21112;-72
2022/03/03 08:25:36;;;;;;;33.88;17.75;;;1.10;99.90;;;;;;1833144;78;21050;-71
2022/03/03 08:28:03;;;;;;;29.65;16.95;;;1.20;99.90;;;;;;1832967;78;21534;-70
2022/03/03 08:30:31;;;;;;;31.12;17.98;;;1.40;99.90;;;;;;1832992;78;21111;-71
2022/03/03 08:33:01;;;;;;;37.67;17.27;;;1.60;99.90;;;;;;1833146;78;21523;-74
2022/03/03 08:35:31;;;;;;;34.05;18.50;;;1.90;99.90;;;;;;1833197;78;21054;-70
2022/03/03 08:38:09;;;;;;;33.45;19.42;;;2.10;99.90;;;;;;1833429;78;21041;-73
2022/03/03 08:40:37;;;;;;;24.02;16.32;;;2.30;99.90;;;;;;1831763;78;21049;-72
2022/03/03 08:43:05;;;;;;;31.97;16.95;;;2.50;99.90;;;;;;1833380;78;21066;-71
2022/03/03 08:45:34;;;;;;;28.17;17.25;;;3.00;99.90;;;;;;1833129;78;21128;-73
2022/03/03 08:48:14;;;;;;;36.77;18.52;;;3.30;99.90;;;;;;1832553;77;21120;-72
2022/03/03 08:50:40;;;;;;;22.30;16.15;;;3.40;99.90;;;;;;1831308;78;21062;-72
2022/03/03 08:53:07;;;;;;;33.35;17.15;;;3.30;99.90;;;;;;1833265;78;21411;-73
2022/03/03 08:55:35;;;;;;;28.38;16.35;;;3.70;99.90;;;;;;1833192;78;21050;-73
2022/03/03 08:58:03;;;;;;;21.93;15.13;;;4.00;99.90;;;;;;1833095;78;21401;-73
2022/03/03 09:00:30;;;;;;;25.88;15.70;;;4.40;99.90;;;;;;1833296;78;21122;-73
2022/03/03 09:02:59;;;;;;;24.07;15.10;;;4.70;99.90;;;;;;1833214;78;21117;-73
2022/03/03 09:05:26;;;;;;;24.47;16.25;;;4.60;99.90;;;;;;1833313;78;21442;-81
2022/03/03 09:07:55;;;;;;;31.55;16.17;;;4.60;99.90;;;;;;1836567;77;21148;-79
2022/03/03 09:10:22;;;;;;;24.72;16.37;;;4.80;99.90;;;;;;1833360;78;21065;-72
2022/03/03 09:12:50;;;;;;;29.60;16.23;;;5.00;99.90;;;;;;1833206;78;21061;-73
2022/03/03 09:15:17;;;;;;;28.92;17.32;;;5.20;99.90;;;;;;1833346;78;21119;-73
2022/03/03 09:17:44;;;;;;;29.00;17.07;;;5.50;99.90;;;;;;1812370;78;21112;-74
2022/03/03 09:20:13;;;;;;;24.05;15.78;;;5.40;99.90;;;;;;1833620;78;21053;-75
2022/03/03 09:22:42;;;;;;;24.70;16.65;;;5.70;99.90;;;;;;1833766;78;21537;-73
2022/03/03 09:25:10;;;;;;;30.08;16.87;;;5.40;99.90;;;;;;1833262;78;21061;-71
2022/03/03 09:27:40;;;;;;;28.67;16.57;;;5.20;99.90;;;;;;1833356;78;21082;-72
2022/03/03 09:30:13;;;;;;;24.98;16.75;;;5.60;99.90;;;;;;1833273;77;21411;-72
2022/03/03 09:32:47;;;;;;;31.00;16.48;;;6.20;99.90;;;;;;1833228;77;21144;-74
2022/03/03 09:35:15;;;;;;;24.43;15.60;;;6.00;99.90;;;;;;1833529;78;21159;-83
2022/03/03 09:37:42;;;;;;;23.38;15.35;;;6.40;99.90;;;;;;1833216;78;21046;-72
2022/03/03 09:40:17;;;;;;;32.13;15.88;;;7.00;99.90;;;;;;1833142;78;21057;-71
2022/03/03 09:42:59;;;;;;;24.85;16.42;;;7.10;99.90;;;;;;1833209;77;21084;-74
2022/03/03 09:45:28;;;;;;;25.82;16.52;;;7.10;99.90;;;;;;1831884;78;21462;-73
2022/03/03 09:47:56;;;;;;;24.05;15.90;;;6.70;99.90;;;;;;1833018;78;21119;-73
2022/03/03 09:50:24;;;;;;;30.97;16.23;;;6.30;99.90;;;;;;1832943;78;21202;-72
2022/03/03 09:52:52;;;;;;;27.00;15.58;;;7.20;99.90;;;;;;1833074;78;21081;-73
2022/03/03 09:55:19;;;;;;;29.00;15.85;;;7.50;99.90;;;;;;1833012;78;21111;-74
2022/03/03 09:57:51;;;;;;;28.00;16.52;;;7.20;99.90;;;;;;1833470;78;21217;-72
2022/03/03 10:00:18;;;;;;;25.68;16.32;;;6.70;99.90;;;;;;1833284;78;21209;-70
2022/03/03 10:03:00;;;;;;;23.55;15.15;;;7.30;99.90;;;;;;1833034;78;21528;-70
2022/03/03 10:05:39;;;;;;;31.23;16.32;;;8.30;99.90;;;;;;1833071;78;21143;-71
2022/03/03 10:08:09;;;;;;;27.05;16.32;;;8.10;99.90;;;;;;1833044;78;21163;-71
2022/03/03 10:10:40;;;;;;;26.82;16.00;;;7.70;99.90;;;;;;1833000;78;21049;-71
2022/03/03 10:13:08;;;;;;;24.72;16.85;;;8.00;99.90;;;;;;1813024;79;21513;-71
2022/03/03 10:15:35;;;;;;;23.00;15.90;;;7.50;99.90;;;;;;1815699;78;21067;-70
2022/03/03 10:18:09;;;;;;;26.00;16.30;;;7.90;99.90;;;;;;1815852;78;21019;-72
2022/03/03 10:20:39;;;;;;;24.90;16.17;;;8.00;99.90;;;;;;1814422;78;21042;-71
2022/03/03 10:25:59;;;;;;;32.05;16.17;;;9.40;99.90;;;;;;1887907;75;21214;-72
2022/03/03 10:28:35;;;;;;;25.80;15.53;;;9.30;99.90;;;;;;1888511;75;21123;-71
2022/03/03 10:31:15;;;;;;;26.70;15.93;;;9.80;99.90;;;;;;1888636;76;21078;-71
2022/03/03 10:33:49;;;;;;;23.62;15.28;;;10.10;99.90;;;;;;1888541;75;21183;-71
2022/03/03 10:36:26;;;;;;;23.12;15.88;;;10.40;99.90;;;;;;1881126;76;21046;-70
2022/03/03 10:38:58;;;;;;;25.50;16.32;;;10.20;99.90;;;;;;1835420;76;21103;-72
2022/03/03 10:41:46;;;;;;;23.87;15.68;;;10.10;99.90;;;;;;1888122;76;21041;-72
2022/03/03 10:44:19;;;;;;;23.90;15.98;;;10.20;99.90;;;;;;1888446;76;21578;-70
2022/03/03 10:47:07;;;;;;;23.18;14.68;;;10.70;99.90;;;;;;1899525;75;21059;-71
2022/03/03 10:49:36;;;;;;;25.30;15.85;;;10.90;99.90;;;;;;1874756;75;21087;-71
2022/03/03 10:52:15;;;;;;;26.50;15.90;;;10.90;99.90;;;;;;1896875;74;21062;-71
2022/03/03 10:55:03;;;;;;;19.98;15.30;;;11.10;99.90;;;;;;1896000;73;21107;-70
2022/03/03 10:57:56;;;;;;;26.25;15.58;;;11.40;99.90;;;;;;1900965;74;21181;-71
2022/03/03 11:00:27;;;;;;;23.00;14.98;;;11.50;99.90;;;;;;1912408;74;21086;-71
2022/03/03 11:03:06;;;;;;;22.37;15.30;;;11.90;99.90;;;;;;1906410;74;21067;-70
2022/03/03 11:05:32;;;;;;;27.13;14.83;;;11.90;99.90;;;;;;1902140;74;21294;-71
2022/03/03 11:08:01;;;;;;;25.05;15.95;;;12.50;99.90;;;;;;1878487;74;21575;-71
2022/03/03 11:10:32;;;;;;;24.57;14.85;;;12.90;98.00;;;;;;1895550;73;21056;-68
2022/03/03 11:13:00;;;;;;;18.65;15.10;;;11.70;99.40;;;;;;1894998;74;21102;-69
2022/03/03 11:15:32;;;;;;;23.27;15.78;;;11.90;99.90;;;;;;1896756;74;21082;-70
2022/03/03 11:17:59;;;;;;;31.05;15.10;;;12.40;98.50;;;;;;1891025;74;21537;-72
2022/03/03 11:20:27;;;;;;;27.00;15.28;;;12.40;98.10;;;;;;1890359;74;21066;-70
2022/03/03 11:22:55;;;;;;;26.23;16.00;;;12.20;98.80;;;;;;1892411;75;21544;-71
2022/03/03 11:25:33;;;;;;;22.10;16.50;;;12.10;98.80;;;;;;1898690;75;21086;-71
2022/03/03 11:28:07;;;;;;;27.58;16.73;;;12.30;99.40;;;;;;1913938;74;21090;-71
2022/03/03 11:30:35;;;;;;;26.30;16.57;;;12.70;98.90;;;;;;1905453;74;21086;-70
2022/03/03 11:33:28;;;;;;;34.15;16.60;;;12.70;98.30;;;;;;1895099;74;21144;-69
2022/03/03 11:36:00;;;;;;;26.77;17.82;;;12.50;98.20;;;;;;1906674;74;21157;-71
2022/03/03 11:38:29;;;;;;;32.38;17.60;;;12.50;98.50;;;;;;1899292;74;21074;-71
2022/03/03 11:41:01;;;;;;;26.60;16.52;;;12.90;97.40;;;;;;1898563;74;21140;-70
2022/03/03 11:43:30;;;;;;;27.82;17.42;;;13.40;96.70;;;;;;1911115;74;21156;-70
2022/03/03 11:45:58;;;;;;;23.85;16.70;;;13.30;96.20;;;;;;1893865;74;21086;-70
2022/03/03 11:48:37;;;;;;;31.77;16.97;;;13.00;96.40;;;;;;1903053;75;21133;-70
2022/03/03 11:51:35;;;;;;;26.75;16.32;;;13.20;97.50;;;;;;1904089;74;21490;-70
2022/03/03 11:54:12;;;;;;;27.60;15.88;;;13.80;94.70;;;;;;1889090;74;21140;-69
2022/03/03 11:57:10;;;;;;;27.70;16.97;;;14.00;93.40;;;;;;1897887;74;21042;-70
2022/03/03 11:59:42;;;;;;;29.35;17.45;;;14.10;93.10;;;;;;1888875;74;21169;-70
2022/03/03 12:02:09;;;;;;;30.32;15.25;;;13.90;93.00;;;;;;1896939;74;21082;-71
2022/03/03 12:04:38;;;;;;;29.77;16.77;;;13.10;93.60;;;;;;1884530;74;21078;-71
2022/03/03 12:07:05;;;;;;;26.80;16.45;;;13.50;93.90;;;;;;1900005;74;21078;-71
2022/03/03 12:09:35;;;;;;;20.65;15.45;;;13.80;92.30;;;;;;1904534;73;21122;-71
2022/03/03 12:12:13;;;;;;;27.22;16.05;;;13.60;92.00;;;;;;1846285;75;21144;-71
2022/03/03 12:14:50;;;;;;;22.65;16.00;;;13.60;92.20;;;;;;1891055;75;21151;-70
2022/03/03 12:17:58;;;;;;;40.80;15.30;;;13.90;91.70;;;;;;1892815;75;21069;-71
2022/03/03 12:20:33;;;;;;;20.23;14.98;;;13.70;90.50;;;;;;1777675;81;21196;-70
2022/03/03 12:23:23;;;;;;;20.97;14.58;;;13.70;90.80;;;;;;1777563;81;21088;-70
2022/03/03 12:26:00;;;;;;;27.30;15.78;;;14.10;89.10;;;;;;1815003;78;21159;-70
2022/03/03 12:28:39;;;;;;;22.73;14.95;;;13.90;88.80;;;;;;1820774;78;21055;-70
2022/03/03 12:31:26;;;;;;;21.63;13.60;;;14.00;88.80;;;;;;1815792;79;21058;-70
2022/03/03 12:34:06;;;;;;;19.82;14.15;;;15.00;87.70;;;;;;1815517;79;21441;-70
2022/03/03 12:36:44;;;;;;;23.67;14.07;;;15.00;83.90;;;;;;1815491;79;21139;-69
2022/03/03 12:39:08;;;;;;;27.35;14.13;;;14.70;83.10;;;;;;1814740;79;21113;-70
2022/03/03 12:41:36;;;;;;;20.97;13.85;;;14.70;82.30;;;;;;1815460;79;21059;-72
2022/03/03 12:44:12;;;;;;;22.52;13.75;;;14.90;81.30;;;;;;1815591;79;21055;-71
2022/03/03 12:46:41;;;;;;;19.25;13.53;;;15.30;80.90;;;;;;1815734;79;21458;-70